sensor_id;sensor_type;location;lat;lon;timestamp;P1;durP1;ratioP1;P2;durP2;ratioP2
32026;SDS011;18543;50.848;4.596;2023-06-14T00:00:44;4.75;;;3.92;;
32026;SDS011;18543;50.848;4.596;2023-06-14T00:05:46;5.53;;;4.00;;
32026;SDS011;18543;50.848;4.596;2023-06-14T00:08:16;4.45;;;4.05;;
32026;SDS011;18543;50.848;4.596;2023-06-14T00:10:45;4.53;;;4.05;;
32026;SDS011;18543;50.848;4.596;2023-06-14T00:13:12;4.35;;;3.95;;
32026;SDS011;18543;50.848;4.596;2023-06-14T00:18:07;4.53;;;3.97;;
32026;SDS011;18543;50.848;4.596;2023-06-14T00:20:37;4.57;;;4.05;;
32026;SDS011;18543;50.848;4.596;2023-06-14T00:25:32;4.18;;;3.78;;
32026;SDS011;18543;50.848;4.596;2023-06-14T00:28:00;4.22;;;3.83;;
32026;SDS011;18543;50.848;4.596;2023-06-14T00:30:27;4.53;;;3.67;;
32026;SDS011;18543;50.848;4.596;2023-06-14T00:32:57;4.35;;;3.95;;
32026;SDS011;18543;50.848;4.596;2023-06-14T00:35:25;4.32;;;3.80;;
32026;SDS011;18543;50.848;4.596;2023-06-14T00:37:52;4.40;;;4.00;;
32026;SDS011;18543;50.848;4.596;2023-06-14T00:40:21;4.30;;;3.90;;
32026;SDS011;18543;50.848;4.596;2023-06-14T00:42:50;4.15;;;3.75;;
32026;SDS011;18543;50.848;4.596;2023-06-14T00:45:18;4.40;;;3.88;;
32026;SDS011;18543;50.848;4.596;2023-06-14T00:47:45;4.43;;;4.03;;
32026;SDS011;18543;50.848;4.596;2023-06-14T00:50:13;4.15;;;3.75;;
32026;SDS011;18543;50.848;4.596;2023-06-14T00:52:40;4.20;;;3.80;;
32026;SDS011;18543;50.848;4.596;2023-06-14T00:55:08;5.43;;;3.85;;
32026;SDS011;18543;50.848;4.596;2023-06-14T00:57:38;4.57;;;3.63;;
32026;SDS011;18543;50.848;4.596;2023-06-14T01:00:06;4.32;;;3.75;;
32026;SDS011;18543;50.848;4.596;2023-06-14T01:02:36;4.70;;;3.88;;
32026;SDS011;18543;50.848;4.596;2023-06-14T01:05:04;4.43;;;3.67;;
32026;SDS011;18543;50.848;4.596;2023-06-14T01:15:12;4.68;;;3.40;;
32026;SDS011;18543;50.848;4.596;2023-06-14T01:17:40;4.32;;;3.90;;
32026;SDS011;18543;50.848;4.596;2023-06-14T01:20:10;5.03;;;3.60;;
32026;SDS011;18543;50.848;4.596;2023-06-14T01:22:53;4.35;;;3.95;;
32026;SDS011;18543;50.848;4.596;2023-06-14T01:25:20;4.22;;;3.83;;
32026;SDS011;18543;50.848;4.596;2023-06-14T01:28:02;4.47;;;3.85;;
32026;SDS011;18543;50.848;4.596;2023-06-14T01:30:36;3.80;;;3.50;;
32026;SDS011;18543;50.848;4.596;2023-06-14T01:33:04;4.63;;;3.78;;
32026;SDS011;18543;50.848;4.596;2023-06-14T01:35:32;4.95;;;3.80;;
32026;SDS011;18543;50.848;4.596;2023-06-14T01:37:59;4.15;;;3.75;;
32026;SDS011;18543;50.848;4.596;2023-06-14T01:40:27;3.80;;;3.50;;
32026;SDS011;18543;50.848;4.596;2023-06-14T01:42:54;4.35;;;3.72;;
32026;SDS011;18543;50.848;4.596;2023-06-14T01:45:24;3.80;;;3.45;;
32026;SDS011;18543;50.848;4.596;2023-06-14T01:47:52;4.20;;;3.70;;
32026;SDS011;18543;50.848;4.596;2023-06-14T01:50:20;3.97;;;3.63;;
32026;SDS011;18543;50.848;4.596;2023-06-14T01:52:49;4.13;;;3.63;;
32026;SDS011;18543;50.848;4.596;2023-06-14T01:55:17;5.03;;;3.78;;
32026;SDS011;18543;50.848;4.596;2023-06-14T01:57:45;4.15;;;3.72;;
32026;SDS011;18543;50.848;4.596;2023-06-14T02:00:12;3.90;;;3.50;;
32026;SDS011;18543;50.848;4.596;2023-06-14T02:02:41;3.83;;;3.53;;
32026;SDS011;18543;50.848;4.596;2023-06-14T02:05:08;4.00;;;3.40;;
32026;SDS011;18543;50.848;4.596;2023-06-14T02:07:37;4.25;;;3.85;;
32026;SDS011;18543;50.848;4.596;2023-06-14T02:10:04;4.03;;;3.63;;
32026;SDS011;18543;50.848;4.596;2023-06-14T02:12:32;3.97;;;3.45;;
32026;SDS011;18543;50.848;4.596;2023-06-14T02:15:01;4.18;;;3.78;;
32026;SDS011;18543;50.848;4.596;2023-06-14T02:17:32;4.15;;;3.75;;
32026;SDS011;18543;50.848;4.596;2023-06-14T02:20:02;4.38;;;3.60;;
32026;SDS011;18543;50.848;4.596;2023-06-14T02:22:31;4.45;;;3.60;;
32026;SDS011;18543;50.848;4.596;2023-06-14T02:24:58;4.45;;;3.70;;
32026;SDS011;18543;50.848;4.596;2023-06-14T02:27:28;4.18;;;3.78;;
32026;SDS011;18543;50.848;4.596;2023-06-14T02:29:55;3.92;;;3.53;;
32026;SDS011;18543;50.848;4.596;2023-06-14T02:32:22;3.55;;;3.25;;
32026;SDS011;18543;50.848;4.596;2023-06-14T02:34:50;4.50;;;3.47;;
32026;SDS011;18543;50.848;4.596;2023-06-14T02:37:17;3.78;;;3.45;;
32026;SDS011;18543;50.848;4.596;2023-06-14T02:39:44;3.90;;;3.38;;
32026;SDS011;18543;50.848;4.596;2023-06-14T02:42:12;3.38;;;3.08;;
32026;SDS011;18543;50.848;4.596;2023-06-14T02:44:39;3.80;;;3.50;;
32026;SDS011;18543;50.848;4.596;2023-06-14T02:47:06;3.70;;;3.40;;
32026;SDS011;18543;50.848;4.596;2023-06-14T02:49:34;3.97;;;3.65;;
32026;SDS011;18543;50.848;4.596;2023-06-14T02:52:01;3.70;;;3.40;;
32026;SDS011;18543;50.848;4.596;2023-06-14T02:54:29;3.78;;;3.20;;
32026;SDS011;18543;50.848;4.596;2023-06-14T02:56:56;4.53;;;3.60;;
32026;SDS011;18543;50.848;4.596;2023-06-14T02:59:23;3.55;;;3.20;;
32026;SDS011;18543;50.848;4.596;2023-06-14T03:01:51;3.90;;;3.50;;
32026;SDS011;18543;50.848;4.596;2023-06-14T03:04:18;4.15;;;3.65;;
32026;SDS011;18543;50.848;4.596;2023-06-14T03:06:47;3.60;;;3.30;;
32026;SDS011;18543;50.848;4.596;2023-06-14T03:09:16;3.85;;;3.45;;
32026;SDS011;18543;50.848;4.596;2023-06-14T03:11:44;3.75;;;3.33;;
32026;SDS011;18543;50.848;4.596;2023-06-14T03:14:11;3.70;;;3.40;;
32026;SDS011;18543;50.848;4.596;2023-06-14T03:16:39;3.80;;;3.50;;
32026;SDS011;18543;50.848;4.596;2023-06-14T03:19:07;3.70;;;3.40;;
32026;SDS011;18543;50.848;4.596;2023-06-14T03:21:36;3.83;;;3.40;;
32026;SDS011;18543;50.848;4.596;2023-06-14T03:24:05;3.78;;;3.45;;
32026;SDS011;18543;50.848;4.596;2023-06-14T03:26:32;4.00;;;3.05;;
32026;SDS011;18543;50.848;4.596;2023-06-14T03:29:00;3.67;;;3.38;;
32026;SDS011;18543;50.848;4.596;2023-06-14T03:31:28;3.28;;;2.95;;
32026;SDS011;18543;50.848;4.596;2023-06-14T03:33:59;3.70;;;3.40;;
32026;SDS011;18543;50.848;4.596;2023-06-14T03:36:26;3.85;;;3.45;;
32026;SDS011;18543;50.848;4.596;2023-06-14T03:38:54;3.53;;;3.10;;
32026;SDS011;18543;50.848;4.596;2023-06-14T03:41:24;3.60;;;3.30;;
32026;SDS011;18543;50.848;4.596;2023-06-14T03:43:52;3.80;;;3.40;;
32026;SDS011;18543;50.848;4.596;2023-06-14T03:46:19;3.60;;;3.30;;
32026;SDS011;18543;50.848;4.596;2023-06-14T03:48:47;3.58;;;3.28;;
32026;SDS011;18543;50.848;4.596;2023-06-14T03:51:14;3.50;;;3.15;;
32026;SDS011;18543;50.848;4.596;2023-06-14T03:53:41;4.53;;;3.45;;
32026;SDS011;18543;50.848;4.596;2023-06-14T03:56:31;3.30;;;3.00;;
32026;SDS011;18543;50.848;4.596;2023-06-14T03:59:00;4.93;;;3.78;;
32026;SDS011;18543;50.848;4.596;2023-06-14T04:01:28;3.70;;;3.30;;
32026;SDS011;18543;50.848;4.596;2023-06-14T04:03:56;3.20;;;2.90;;
32026;SDS011;18543;50.848;4.596;2023-06-14T04:06:24;3.45;;;3.15;;
32026;SDS011;18543;50.848;4.596;2023-06-14T04:08:59;3.67;;;3.35;;
32026;SDS011;18543;50.848;4.596;2023-06-14T04:11:29;3.53;;;3.22;;
32026;SDS011;18543;50.848;4.596;2023-06-14T04:13:59;3.83;;;3.20;;
32026;SDS011;18543;50.848;4.596;2023-06-14T04:16:27;4.70;;;3.30;;
32026;SDS011;18543;50.848;4.596;2023-06-14T04:18:55;3.65;;;3.15;;
32026;SDS011;18543;50.848;4.596;2023-06-14T04:21:24;4.00;;;3.60;;
32026;SDS011;18543;50.848;4.596;2023-06-14T04:23:54;3.47;;;3.17;;
32026;SDS011;18543;50.848;4.596;2023-06-14T04:26:23;3.40;;;3.10;;
32026;SDS011;18543;50.848;4.596;2023-06-14T04:28:56;4.45;;;3.22;;
32026;SDS011;18543;50.848;4.596;2023-06-14T04:31:28;4.20;;;3.30;;
32026;SDS011;18543;50.848;4.596;2023-06-14T04:34:00;3.40;;;3.10;;
32026;SDS011;18543;50.848;4.596;2023-06-14T04:36:27;3.33;;;3.03;;
32026;SDS011;18543;50.848;4.596;2023-06-14T04:38:54;3.33;;;3.03;;
32026;SDS011;18543;50.848;4.596;2023-06-14T04:41:22;3.13;;;2.83;;
32026;SDS011;18543;50.848;4.596;2023-06-14T04:43:55;3.30;;;2.90;;
32026;SDS011;18543;50.848;4.596;2023-06-14T04:46:23;3.70;;;3.40;;
32026;SDS011;18543;50.848;4.596;2023-06-14T04:48:50;3.58;;;3.20;;
32026;SDS011;18543;50.848;4.596;2023-06-14T04:51:18;3.03;;;2.80;;
32026;SDS011;18543;50.848;4.596;2023-06-14T04:53:48;3.67;;;3.38;;
32026;SDS011;18543;50.848;4.596;2023-06-14T04:56:15;3.30;;;3.00;;
32026;SDS011;18543;50.848;4.596;2023-06-14T04:58:45;3.35;;;2.92;;
32026;SDS011;18543;50.848;4.596;2023-06-14T05:01:12;3.53;;;3.22;;
32026;SDS011;18543;50.848;4.596;2023-06-14T05:03:40;3.30;;;3.00;;
32026;SDS011;18543;50.848;4.596;2023-06-14T05:06:07;3.35;;;3.05;;
32026;SDS011;18543;50.848;4.596;2023-06-14T05:08:35;3.33;;;2.80;;
32026;SDS011;18543;50.848;4.596;2023-06-14T05:11:02;3.20;;;2.90;;
32026;SDS011;18543;50.848;4.596;2023-06-14T05:13:30;3.45;;;3.15;;
32026;SDS011;18543;50.848;4.596;2023-06-14T05:15:59;3.35;;;3.05;;
32026;SDS011;18543;50.848;4.596;2023-06-14T05:18:29;3.47;;;3.10;;
32026;SDS011;18543;50.848;4.596;2023-06-14T05:20:56;3.25;;;2.70;;
32026;SDS011;18543;50.848;4.596;2023-06-14T05:23:24;3.42;;;3.13;;
32026;SDS011;18543;50.848;4.596;2023-06-14T05:25:51;3.42;;;3.13;;
32026;SDS011;18543;50.848;4.596;2023-06-14T05:28:19;3.00;;;2.70;;
32026;SDS011;18543;50.848;4.596;2023-06-14T05:30:47;3.05;;;2.85;;
32026;SDS011;18543;50.848;4.596;2023-06-14T05:33:14;4.00;;;3.40;;
32026;SDS011;18543;50.848;4.596;2023-06-14T05:35:41;3.15;;;2.85;;
32026;SDS011;18543;50.848;4.596;2023-06-14T05:38:09;3.40;;;3.10;;
32026;SDS011;18543;50.848;4.596;2023-06-14T05:40:36;3.25;;;2.95;;
32026;SDS011;18543;50.848;4.596;2023-06-14T05:43:03;2.85;;;2.65;;
32026;SDS011;18543;50.848;4.596;2023-06-14T05:45:30;3.55;;;2.78;;
32026;SDS011;18543;50.848;4.596;2023-06-14T05:47:58;11.27;;;7.40;;
32026;SDS011;18543;50.848;4.596;2023-06-14T05:50:25;10.18;;;6.50;;
32026;SDS011;18543;50.848;4.596;2023-06-14T05:52:53;12.15;;;6.15;;
32026;SDS011;18543;50.848;4.596;2023-06-14T05:55:21;9.73;;;5.10;;
32026;SDS011;18543;50.848;4.596;2023-06-14T05:57:48;7.95;;;4.57;;
32026;SDS011;18543;50.848;4.596;2023-06-14T06:00:18;7.88;;;5.03;;
32026;SDS011;18543;50.848;4.596;2023-06-14T06:02:46;6.55;;;4.75;;
32026;SDS011;18543;50.848;4.596;2023-06-14T06:05:14;6.13;;;5.18;;
32026;SDS011;18543;50.848;4.596;2023-06-14T06:07:42;6.25;;;4.85;;
32026;SDS011;18543;50.848;4.596;2023-06-14T06:10:11;9.23;;;5.03;;
32026;SDS011;18543;50.848;4.596;2023-06-14T06:12:40;8.43;;;4.65;;
32026;SDS011;18543;50.848;4.596;2023-06-14T06:15:08;6.45;;;4.95;;
32026;SDS011;18543;50.848;4.596;2023-06-14T06:17:39;5.93;;;4.95;;
32026;SDS011;18543;50.848;4.596;2023-06-14T06:20:21;6.32;;;4.82;;
32026;SDS011;18543;50.848;4.596;2023-06-14T06:22:55;10.18;;;5.10;;
32026;SDS011;18543;50.848;4.596;2023-06-14T06:25:22;8.15;;;5.35;;
32026;SDS011;18543;50.848;4.596;2023-06-14T06:27:52;6.00;;;4.65;;
32026;SDS011;18543;50.848;4.596;2023-06-14T06:30:20;7.63;;;4.90;;
32026;SDS011;18543;50.848;4.596;2023-06-14T06:32:50;6.18;;;5.25;;
32026;SDS011;18543;50.848;4.596;2023-06-14T06:35:17;9.52;;;5.18;;
32026;SDS011;18543;50.848;4.596;2023-06-14T06:37:47;7.07;;;5.28;;
32026;SDS011;18543;50.848;4.596;2023-06-14T06:40:14;5.63;;;4.90;;
32026;SDS011;18543;50.848;4.596;2023-06-14T06:42:42;7.13;;;4.85;;
32026;SDS011;18543;50.848;4.596;2023-06-14T06:45:09;9.10;;;4.80;;
32026;SDS011;18543;50.848;4.596;2023-06-14T06:47:36;5.97;;;4.75;;
32026;SDS011;18543;50.848;4.596;2023-06-14T06:50:04;7.55;;;4.80;;
32026;SDS011;18543;50.848;4.596;2023-06-14T06:52:35;6.50;;;4.50;;
32026;SDS011;18543;50.848;4.596;2023-06-14T06:55:02;5.78;;;4.80;;
32026;SDS011;18543;50.848;4.596;2023-06-14T06:57:30;5.32;;;4.80;;
32026;SDS011;18543;50.848;4.596;2023-06-14T06:59:59;6.97;;;4.63;;
32026;SDS011;18543;50.848;4.596;2023-06-14T07:02:32;8.27;;;4.57;;
32026;SDS011;18543;50.848;4.596;2023-06-14T07:04:59;6.95;;;4.90;;
32026;SDS011;18543;50.848;4.596;2023-06-14T07:07:29;6.20;;;4.75;;
32026;SDS011;18543;50.848;4.596;2023-06-14T07:09:56;7.40;;;4.90;;
32026;SDS011;18543;50.848;4.596;2023-06-14T07:12:23;5.80;;;4.70;;
32026;SDS011;18543;50.848;4.596;2023-06-14T07:14:51;4.88;;;4.38;;
32026;SDS011;18543;50.848;4.596;2023-06-14T07:17:18;6.07;;;4.57;;
32026;SDS011;18543;50.848;4.596;2023-06-14T07:19:45;8.38;;;4.30;;
32026;SDS011;18543;50.848;4.596;2023-06-14T07:22:15;6.70;;;4.70;;
32026;SDS011;18543;50.848;4.596;2023-06-14T07:24:43;6.78;;;4.50;;
32026;SDS011;18543;50.848;4.596;2023-06-14T07:27:11;5.75;;;4.47;;
32026;SDS011;18543;50.848;4.596;2023-06-14T07:29:40;6.25;;;4.57;;
32026;SDS011;18543;50.848;4.596;2023-06-14T07:32:08;5.57;;;4.28;;
32026;SDS011;18543;50.848;4.596;2023-06-14T07:34:35;6.47;;;4.88;;
32026;SDS011;18543;50.848;4.596;2023-06-14T07:37:03;6.70;;;4.35;;
32026;SDS011;18543;50.848;4.596;2023-06-14T07:39:30;5.53;;;4.65;;
32026;SDS011;18543;50.848;4.596;2023-06-14T07:41:57;4.93;;;4.28;;
32026;SDS011;18543;50.848;4.596;2023-06-14T07:44:24;6.25;;;4.18;;
32026;SDS011;18543;50.848;4.596;2023-06-14T07:46:52;5.60;;;4.53;;
32026;SDS011;18543;50.848;4.596;2023-06-14T07:49:19;6.05;;;4.78;;
32026;SDS011;18543;50.848;4.596;2023-06-14T07:51:47;4.75;;;4.13;;
32026;SDS011;18543;50.848;4.596;2023-06-14T07:54:14;6.30;;;4.22;;
32026;SDS011;18543;50.848;4.596;2023-06-14T07:56:42;5.93;;;4.55;;
32026;SDS011;18543;50.848;4.596;2023-06-14T07:59:10;5.13;;;4.60;;
32026;SDS011;18543;50.848;4.596;2023-06-14T08:01:37;4.85;;;4.25;;
32026;SDS011;18543;50.848;4.596;2023-06-14T08:04:05;6.63;;;4.20;;
32026;SDS011;18543;50.848;4.596;2023-06-14T08:06:33;4.70;;;4.22;;
32026;SDS011;18543;50.848;4.596;2023-06-14T08:09:00;4.45;;;4.05;;
32026;SDS011;18543;50.848;4.596;2023-06-14T08:11:27;4.97;;;4.40;;
32026;SDS011;18543;50.848;4.596;2023-06-14T08:13:55;6.15;;;4.53;;
32026;SDS011;18543;50.848;4.596;2023-06-14T08:16:22;5.00;;;4.30;;
32026;SDS011;18543;50.848;4.596;2023-06-14T08:18:49;4.78;;;4.35;;
32026;SDS011;18543;50.848;4.596;2023-06-14T08:21:19;5.50;;;4.20;;
32026;SDS011;18543;50.848;4.596;2023-06-14T08:23:46;4.60;;;4.10;;
32026;SDS011;18543;50.848;4.596;2023-06-14T08:26:13;5.65;;;4.30;;
32026;SDS011;18543;50.848;4.596;2023-06-14T08:28:41;5.78;;;4.40;;
32026;SDS011;18543;50.848;4.596;2023-06-14T08:31:08;5.15;;;4.30;;
32026;SDS011;18543;50.848;4.596;2023-06-14T08:33:36;5.32;;;4.47;;
32026;SDS011;18543;50.848;4.596;2023-06-14T08:36:03;6.00;;;4.47;;
32026;SDS011;18543;50.848;4.596;2023-06-14T08:38:30;6.03;;;4.55;;
32026;SDS011;18543;50.848;4.596;2023-06-14T08:40:58;4.97;;;4.47;;
32026;SDS011;18543;50.848;4.596;2023-06-14T08:43:27;6.05;;;4.22;;
32026;SDS011;18543;50.848;4.596;2023-06-14T08:45:57;5.18;;;4.50;;
32026;SDS011;18543;50.848;4.596;2023-06-14T08:48:27;4.30;;;3.90;;
32026;SDS011;18543;50.848;4.596;2023-06-14T08:50:55;5.10;;;4.60;;
32026;SDS011;18543;50.848;4.596;2023-06-14T08:53:29;5.55;;;4.43;;
32026;SDS011;18543;50.848;4.596;2023-06-14T08:56:02;5.70;;;4.07;;
32026;SDS011;18543;50.848;4.596;2023-06-14T08:58:31;5.55;;;4.05;;
32026;SDS011;18543;50.848;4.596;2023-06-14T09:01:02;4.80;;;4.25;;
32026;SDS011;18543;50.848;4.596;2023-06-14T09:03:30;4.85;;;4.35;;
32026;SDS011;18543;50.848;4.596;2023-06-14T09:05:59;4.50;;;4.10;;
32026;SDS011;18543;50.848;4.596;2023-06-14T09:08:27;6.30;;;4.13;;
32026;SDS011;18543;50.848;4.596;2023-06-14T09:10:56;4.28;;;3.80;;
32026;SDS011;18543;50.848;4.596;2023-06-14T09:13:26;4.47;;;4.07;;
32026;SDS011;18543;50.848;4.596;2023-06-14T09:15:57;5.28;;;4.40;;
32026;SDS011;18543;50.848;4.596;2023-06-14T09:18:40;4.78;;;4.30;;
32026;SDS011;18543;50.848;4.596;2023-06-14T09:21:11;5.47;;;4.10;;
32026;SDS011;18543;50.848;4.596;2023-06-14T09:23:39;6.38;;;4.40;;
32026;SDS011;18543;50.848;4.596;2023-06-14T09:28:48;4.60;;;4.13;;
32026;SDS011;18543;50.848;4.596;2023-06-14T09:31:17;4.63;;;3.95;;
32026;SDS011;18543;50.848;4.596;2023-06-14T09:33:47;4.40;;;4.00;;
32026;SDS011;18543;50.848;4.596;2023-06-14T09:36:21;5.68;;;4.10;;
32026;SDS011;18543;50.848;4.596;2023-06-14T09:38:52;4.70;;;4.20;;
32026;SDS011;18543;50.848;4.596;2023-06-14T09:41:20;4.50;;;4.00;;
32026;SDS011;18543;50.848;4.596;2023-06-14T09:43:48;5.45;;;4.22;;
32026;SDS011;18543;50.848;4.596;2023-06-14T09:46:16;4.40;;;4.00;;
32026;SDS011;18543;50.848;4.596;2023-06-14T09:48:44;4.80;;;4.28;;
32026;SDS011;18543;50.848;4.596;2023-06-14T09:51:12;4.28;;;3.92;;
32026;SDS011;18543;50.848;4.596;2023-06-14T09:53:41;4.10;;;3.70;;
32026;SDS011;18543;50.848;4.596;2023-06-14T09:56:10;4.65;;;4.00;;
32026;SDS011;18543;50.848;4.596;2023-06-14T09:58:37;4.40;;;3.70;;
32026;SDS011;18543;50.848;4.596;2023-06-14T10:01:06;4.25;;;3.83;;
32026;SDS011;18543;50.848;4.596;2023-06-14T10:03:36;4.53;;;4.05;;
32026;SDS011;18543;50.848;4.596;2023-06-14T10:06:24;4.13;;;3.72;;
32026;SDS011;18543;50.848;4.596;2023-06-14T10:08:53;4.82;;;3.75;;
32026;SDS011;18543;50.848;4.596;2023-06-14T10:11:23;4.32;;;3.92;;
32026;SDS011;18543;50.848;4.596;2023-06-14T10:13:52;4.82;;;3.60;;
32026;SDS011;18543;50.848;4.596;2023-06-14T10:23:44;4.10;;;3.70;;
32026;SDS011;18543;50.848;4.596;2023-06-14T10:26:19;3.80;;;3.50;;
32026;SDS011;18543;50.848;4.596;2023-06-14T10:31:47;4.20;;;3.63;;
32026;SDS011;18543;50.848;4.596;2023-06-14T10:34:38;3.92;;;3.63;;
32026;SDS011;18543;50.848;4.596;2023-06-14T10:39:29;4.15;;;3.72;;
32026;SDS011;18543;50.848;4.596;2023-06-14T10:41:57;4.30;;;3.90;;
32026;SDS011;18543;50.848;4.596;2023-06-14T10:46:55;5.00;;;3.83;;
32026;SDS011;18543;50.848;4.596;2023-06-14T10:52:09;3.72;;;3.42;;
32026;SDS011;18543;50.848;4.596;2023-06-14T10:57:33;4.38;;;3.97;;
32026;SDS011;18543;50.848;4.596;2023-06-14T11:00:16;4.47;;;3.88;;
32026;SDS011;18543;50.848;4.596;2023-06-14T11:02:58;4.07;;;3.67;;
32026;SDS011;18543;50.848;4.596;2023-06-14T11:05:35;4.57;;;3.70;;
32026;SDS011;18543;50.848;4.596;2023-06-14T11:10:40;4.63;;;3.72;;
32026;SDS011;18543;50.848;4.596;2023-06-14T11:13:08;3.95;;;3.65;;
32026;SDS011;18543;50.848;4.596;2023-06-14T11:15:36;4.25;;;3.85;;
32026;SDS011;18543;50.848;4.596;2023-06-14T11:18:07;4.38;;;3.80;;
32026;SDS011;18543;50.848;4.596;2023-06-14T11:20:36;3.90;;;3.60;;
32026;SDS011;18543;50.848;4.596;2023-06-14T11:23:04;4.47;;;3.72;;
32026;SDS011;18543;50.848;4.596;2023-06-14T11:25:31;4.40;;;4.00;;
32026;SDS011;18543;50.848;4.596;2023-06-14T11:27:58;4.28;;;3.88;;
32026;SDS011;18543;50.848;4.596;2023-06-14T11:30:26;3.83;;;3.53;;
32026;SDS011;18543;50.848;4.596;2023-06-14T11:32:56;3.83;;;3.45;;
32026;SDS011;18543;50.848;4.596;2023-06-14T11:35:25;4.10;;;3.70;;
32026;SDS011;18543;50.848;4.596;2023-06-14T11:37:53;4.20;;;3.80;;
32026;SDS011;18543;50.848;4.596;2023-06-14T11:40:25;8.82;;;3.58;;
32026;SDS011;18543;50.848;4.596;2023-06-14T11:42:59;3.97;;;3.50;;
32026;SDS011;18543;50.848;4.596;2023-06-14T11:45:27;4.55;;;3.90;;
32026;SDS011;18543;50.848;4.596;2023-06-14T11:47:55;4.18;;;3.78;;
32026;SDS011;18543;50.848;4.596;2023-06-14T11:50:23;4.00;;;3.60;;
32026;SDS011;18543;50.848;4.596;2023-06-14T11:55:18;4.28;;;3.65;;
32026;SDS011;18543;50.848;4.596;2023-06-14T11:57:46;4.20;;;3.80;;
32026;SDS011;18543;50.848;4.596;2023-06-14T12:02:41;4.05;;;3.67;;
32026;SDS011;18543;50.848;4.596;2023-06-14T12:05:09;3.67;;;3.38;;
32026;SDS011;18543;50.848;4.596;2023-06-14T12:07:37;3.67;;;3.38;;
32026;SDS011;18543;50.848;4.596;2023-06-14T12:10:09;3.88;;;3.50;;
32026;SDS011;18543;50.848;4.596;2023-06-14T12:12:39;4.65;;;3.72;;
32026;SDS011;18543;50.848;4.596;2023-06-14T12:15:08;3.97;;;3.60;;
32026;SDS011;18543;50.848;4.596;2023-06-14T12:17:38;3.80;;;3.40;;
32026;SDS011;18543;50.848;4.596;2023-06-14T12:22:52;3.50;;;3.20;;
32026;SDS011;18543;50.848;4.596;2023-06-14T12:25:23;4.32;;;3.40;;
32026;SDS011;18543;50.848;4.596;2023-06-14T12:27:54;3.60;;;3.30;;
32026;SDS011;18543;50.848;4.596;2023-06-14T12:30:22;4.20;;;3.67;;
32026;SDS011;18543;50.848;4.596;2023-06-14T12:32:49;3.92;;;3.20;;
32026;SDS011;18543;50.848;4.596;2023-06-14T12:35:18;3.92;;;3.60;;
32026;SDS011;18543;50.848;4.596;2023-06-14T12:37:47;3.45;;;3.15;;
32026;SDS011;18543;50.848;4.596;2023-06-14T12:40:15;3.75;;;3.33;;
32026;SDS011;18543;50.848;4.596;2023-06-14T12:42:44;3.60;;;3.30;;
32026;SDS011;18543;50.848;4.596;2023-06-14T12:45:13;3.67;;;3.38;;
32026;SDS011;18543;50.848;4.596;2023-06-14T12:50:09;3.85;;;3.45;;
32026;SDS011;18543;50.848;4.596;2023-06-14T12:52:36;3.63;;;3.30;;
32026;SDS011;18543;50.848;4.596;2023-06-14T12:55:03;3.85;;;3.55;;
32026;SDS011;18543;50.848;4.596;2023-06-14T12:57:31;3.33;;;3.03;;
32026;SDS011;18543;50.848;4.596;2023-06-14T12:59:59;3.50;;;3.20;;
32026;SDS011;18543;50.848;4.596;2023-06-14T13:02:27;3.63;;;3.33;;
32026;SDS011;18543;50.848;4.596;2023-06-14T13:04:55;3.80;;;3.42;;
32026;SDS011;18543;50.848;4.596;2023-06-14T13:07:25;3.60;;;3.30;;
32026;SDS011;18543;50.848;4.596;2023-06-14T13:09:52;4.25;;;3.85;;
32026;SDS011;18543;50.848;4.596;2023-06-14T13:12:19;3.90;;;3.50;;
32026;SDS011;18543;50.848;4.596;2023-06-14T13:14:47;4.20;;;3.60;;
32026;SDS011;18543;50.848;4.596;2023-06-14T13:17:14;3.75;;;3.45;;
32026;SDS011;18543;50.848;4.596;2023-06-14T13:19:42;4.30;;;3.63;;
32026;SDS011;18543;50.848;4.596;2023-06-14T13:22:09;3.60;;;3.30;;
32026;SDS011;18543;50.848;4.596;2023-06-14T13:24:37;3.65;;;3.30;;
32026;SDS011;18543;50.848;4.596;2023-06-14T13:27:04;3.85;;;3.38;;
32026;SDS011;18543;50.848;4.596;2023-06-14T13:32:02;3.58;;;3.28;;
32026;SDS011;18543;50.848;4.596;2023-06-14T13:36:57;3.50;;;3.20;;
32026;SDS011;18543;50.848;4.596;2023-06-14T13:39:25;4.18;;;3.00;;
32026;SDS011;18543;50.848;4.596;2023-06-14T13:41:53;3.50;;;3.10;;
32026;SDS011;18543;50.848;4.596;2023-06-14T13:44:20;3.80;;;3.35;;
32026;SDS011;18543;50.848;4.596;2023-06-14T13:46:48;3.83;;;3.47;;
32026;SDS011;18543;50.848;4.596;2023-06-14T13:49:15;3.40;;;3.10;;
32026;SDS011;18543;50.848;4.596;2023-06-14T13:51:42;3.40;;;3.10;;
32026;SDS011;18543;50.848;4.596;2023-06-14T13:54:12;3.70;;;3.40;;
32026;SDS011;18543;50.848;4.596;2023-06-14T13:56:41;3.30;;;3.00;;
32026;SDS011;18543;50.848;4.596;2023-06-14T14:01:35;3.17;;;2.90;;
32026;SDS011;18543;50.848;4.596;2023-06-14T14:04:03;3.40;;;3.10;;
32026;SDS011;18543;50.848;4.596;2023-06-14T14:06:31;4.05;;;3.28;;
32026;SDS011;18543;50.848;4.596;2023-06-14T14:08:58;3.58;;;3.25;;
32026;SDS011;18543;50.848;4.596;2023-06-14T14:11:26;3.00;;;2.80;;
32026;SDS011;18543;50.848;4.596;2023-06-14T14:13:54;3.60;;;3.03;;
32026;SDS011;18543;50.848;4.596;2023-06-14T14:16:24;4.20;;;2.88;;
32026;SDS011;18543;50.848;4.596;2023-06-14T14:18:52;2.95;;;2.75;;
32026;SDS011;18543;50.848;4.596;2023-06-14T14:21:22;3.30;;;3.00;;
32026;SDS011;18543;50.848;4.596;2023-06-14T14:23:52;3.40;;;2.97;;
32026;SDS011;18543;50.848;4.596;2023-06-14T14:26:19;3.20;;;2.88;;
32026;SDS011;18543;50.848;4.596;2023-06-14T14:28:47;3.22;;;2.92;;
32026;SDS011;18543;50.848;4.596;2023-06-14T14:31:14;3.38;;;3.05;;
32026;SDS011;18543;50.848;4.596;2023-06-14T14:33:41;3.28;;;2.95;;
32026;SDS011;18543;50.848;4.596;2023-06-14T14:36:09;3.33;;;3.10;;
32026;SDS011;18543;50.848;4.596;2023-06-14T14:38:36;3.40;;;3.10;;
32026;SDS011;18543;50.848;4.596;2023-06-14T14:41:03;3.13;;;2.83;;
32026;SDS011;18543;50.848;4.596;2023-06-14T14:43:31;3.53;;;3.22;;
32026;SDS011;18543;50.848;4.596;2023-06-14T14:45:58;3.20;;;2.85;;
32026;SDS011;18543;50.848;4.596;2023-06-14T14:48:26;3.33;;;3.03;;
32026;SDS011;18543;50.848;4.596;2023-06-14T14:50:53;3.40;;;3.10;;
32026;SDS011;18543;50.848;4.596;2023-06-14T14:53:21;3.38;;;3.08;;
32026;SDS011;18543;50.848;4.596;2023-06-14T14:55:48;3.85;;;2.83;;
32026;SDS011;18543;50.848;4.596;2023-06-14T14:58:15;3.47;;;3.17;;
32026;SDS011;18543;50.848;4.596;2023-06-14T15:00:44;3.50;;;3.20;;
32026;SDS011;18543;50.848;4.596;2023-06-14T15:03:12;6.00;;;3.03;;
32026;SDS011;18543;50.848;4.596;2023-06-14T15:05:40;3.00;;;2.80;;
32026;SDS011;18543;50.848;4.596;2023-06-14T15:08:07;3.17;;;2.88;;
32026;SDS011;18543;50.848;4.596;2023-06-14T15:10:39;2.83;;;2.60;;
32026;SDS011;18543;50.848;4.596;2023-06-14T15:13:09;3.20;;;2.90;;
32026;SDS011;18543;50.848;4.596;2023-06-14T15:15:36;3.55;;;3.00;;
32026;SDS011;18543;50.848;4.596;2023-06-14T15:18:04;3.05;;;2.83;;
32026;SDS011;18543;50.848;4.596;2023-06-14T15:20:31;3.50;;;2.97;;
32026;SDS011;18543;50.848;4.596;2023-06-14T15:22:58;3.72;;;2.90;;
32026;SDS011;18543;50.848;4.596;2023-06-14T15:25:26;3.55;;;3.00;;
32026;SDS011;18543;50.848;4.596;2023-06-14T15:27:54;3.13;;;2.90;;
32026;SDS011;18543;50.848;4.596;2023-06-14T15:30:22;3.13;;;2.83;;
32026;SDS011;18543;50.848;4.596;2023-06-14T15:32:49;2.90;;;2.70;;
32026;SDS011;18543;50.848;4.596;2023-06-14T15:35:17;3.05;;;2.80;;
32026;SDS011;18543;50.848;4.596;2023-06-14T15:37:47;3.22;;;2.60;;
32026;SDS011;18543;50.848;4.596;2023-06-14T15:40:15;3.25;;;2.95;;
32026;SDS011;18543;50.848;4.596;2023-06-14T15:42:43;3.10;;;2.80;;
32026;SDS011;18543;50.848;4.596;2023-06-14T15:45:10;3.08;;;2.80;;
32026;SDS011;18543;50.848;4.596;2023-06-14T15:47:38;2.80;;;2.60;;
32026;SDS011;18543;50.848;4.596;2023-06-14T15:50:05;3.20;;;2.90;;
32026;SDS011;18543;50.848;4.596;2023-06-14T15:52:37;3.25;;;2.95;;
32026;SDS011;18543;50.848;4.596;2023-06-14T15:55:04;2.90;;;2.70;;